Terminal Aerodrome Forecast
Issued by NWS

Current Version | Previous Version | Graphics & Text | Print | Product List | Glossary On
Versions: 1 2 3 4 5 6 7 8 9 10 11 12 13 14 15 16 17 18 19
269
FTUS41 KILN 211100
TAFLUK
TAF
KLUK 211137Z 2112/2212 02007KT P6SM BKN022 OVC040
     FM211500 36006KT P6SM OVC025
     FM211700 33008KT P6SM BKN035
     FM212200 32010KT P6SM SCT045
     FM220500 26004KT P6SM FEW040=

USA.gov is the U.S. government's official web portal to all federal, state and local government web resources and services.